Flight Track Log - Related Links

Times and Time Zones

All times are in EDT time to prevent confusion due to time zone crossing. See the N156G flight status page for this flight to view local times or setup timezone preferences in your user account.

Time Position Orientation Groundspeed Altitude Reporting Facility
EDT Latitude Longitude Course Direction KTS MPH feet Rate Location/Type
Thu 12:30:22 PM 37.7658 -112.9128 91° East 163 188 12,300  Level Salt Lake Center
Thu 12:31:24 PM 37.7572 -112.8367 98° East 174 200 13,400 871 Climbing Salt Lake Center
Thu 12:32:26 PM 37.7494 -112.7753 99° East 176 203 14,100 677 Climbing Salt Lake Center
Thu 12:33:28 PM 37.7411 -112.7133 100° East 177 204 14,800 823 Climbing Salt Lake Center
Thu 12:34:30 PM 37.7331 -112.6494 99° East 180 207 15,800 1,016 Climbing Salt Lake Center
Thu 12:35:00 PM 37.7009 -113.0930 91° East  Level FlightAware Approximate
Thu 12:35:32 PM 37.7233 -112.5853 101° East 183 211 16,900  Level Salt Lake Center
Thu 12:36:34 PM 37.7147 -112.5192 99° East 187 215 16,900  Level Salt Lake Center
Thu 12:37:36 PM 37.7094 -112.4500 95° East 194 223 16,900  Level Salt Lake Center
Thu 12:38:38 PM 37.7044 -112.3711 95° East 191 220 16,900 -48 Level Salt Lake Center
Thu 12:39:40 PM 37.6869 -112.3183 113° Southeast 179 206 16,800 -48 Descending Salt Lake Center
Thu 12:40:42 PM 37.6519 -112.2950 152° Southeast 151 174 16,800  Level Salt Lake Center
Thu 12:41:44 PM 37.6133 -112.2836 167° South 145 167 16,800  Level Salt Lake Center
Thu 12:42:46 PM 37.5731 -112.2847 181° South 144 166 16,800 48 Level Salt Lake Center
Thu 12:43:48 PM 37.5361 -112.2892 185° South 139 160 16,900 48 Climbing Salt Lake Center
Thu 12:44:50 PM 37.4894 -112.2908 182° South 138 159 16,900 -48 Level Salt Lake Center
Thu 12:45:52 PM 37.4483 -112.2853 174° South 142 163 16,800 -48 Descending Salt Lake Center
Thu 12:46:54 PM 37.4103 -112.2772 170° South 142 163 16,800 48 Level Salt Lake Center
Thu 12:47:56 PM 37.3750 -112.2725 174° South 136 157 16,900 124 Climbing Salt Lake Center
Thu 12:48:31 PM 37.3528 -112.2725 180° South 128 147 17,000 62 Climbing Los Angeles Center
Thu 12:49:33 PM 37.3153 -112.2714 179° South 133 153 17,000  Level Los Angeles Center
Thu 12:50:36 PM 37.2733 -112.2692 178° South 147 169 17,000  Level Los Angeles Center
Thu 12:51:38 PM 37.2333 -112.2633 173° South 146 168 17,000  Level Los Angeles Center
Thu 12:52:40 PM 37.1869 -112.2572 174° South 140 161 17,000  Level Los Angeles Center
Thu 12:53:42 PM 37.1483 -112.2547 177° South 139 160 17,000  Level Los Angeles Center
Thu 12:54:44 PM 37.1064 -112.2531 178° South 146 168 17,000  Level Los Angeles Center
Thu 12:55:46 PM 37.0628 -112.2481 175° South 154 177 17,000  Level Los Angeles Center
Thu 12:56:48 PM 37.0200 -112.2433 175° South 155 178 17,000  Level Los Angeles Center
Thu 12:57:50 PM 36.9803 -112.2378 174° South 149 171 17,000  Level Los Angeles Center
Thu 12:58:52 PM 36.9325 -112.2342 177° South 143 165 17,000  Level Los Angeles Center
Thu 12:59:54 PM 36.8931 -112.2322 178° South 142 163 17,000  Level Los Angeles Center
Thu 01:00:56 PM 36.8525 -112.2283 176° South 145 167 17,000  Level Los Angeles Center
Thu 01:01:58 PM 36.8100 -112.2256 177° South 151 174 17,000  Level Los Angeles Center
Thu 01:03:00 PM 36.7700 -112.2200 174° South 147 169 17,000  Level Los Angeles Center
Thu 01:04:02 PM 36.7392 -112.2164 175° South 140 161 17,000  Level Los Angeles Center
Thu 01:05:05 PM 36.6881 -112.2111 175° South 130 150 17,000  Level Los Angeles Center
Thu 01:06:07 PM 36.6525 -112.2089 177° South 127 146 17,000  Level Los Angeles Center
Thu 01:07:09 PM 36.6147 -112.2064 177° South 133 153 17,000  Level Los Angeles Center
Thu 01:08:11 PM 36.5756 -112.2028 176° South 139 160 17,000  Level Los Angeles Center
Thu 01:09:13 PM 36.5364 -112.1992 176° South 141 162 17,000  Level Los Angeles Center
Thu 01:10:27 PM 36.4986 -112.1961 176° South 137 158 17,000 44 Level Los Angeles Center
Thu 01:11:30 PM 36.4472 -112.1908 175° South 131 151 17,100 48 Climbing Los Angeles Center
Thu 01:12:32 PM 36.4142 -112.1856 173° South 122 140 17,100  Level Los Angeles Center
Thu 01:13:46 PM 36.3686 -112.1975 192° South 134 154 17,100  Level Los Angeles Center
Thu 01:14:48 PM 36.3319 -112.2047 189° South 135 155 17,100  Level Los Angeles Center
Thu 01:15:51 PM 36.2950 -112.2075 183° South 133 153 17,100  Level Los Angeles Center
Thu 01:16:53 PM 36.2522 -112.2153 188° South 131 151 17,100  Level Los Angeles Center
Thu 01:17:55 PM 36.2133 -112.2219 188° South 135 155 17,100  Level Los Angeles Center
Thu 01:18:57 PM 36.1686 -112.2344 193° South 151 174 17,100  Level Los Angeles Center
Thu 01:19:59 PM 36.1247 -112.2394 185° South 158 182 17,100  Level Los Angeles Center
Thu 01:21:01 PM 36.0847 -112.2444 186° South 154 177 17,100  Level Los Angeles Center
Thu 01:22:03 PM 36.0475 -112.2522 190° South 142 163 17,100  Level Los Angeles Center
Thu 01:23:05 PM 36.0017 -112.2606 188° South 142 163 17,100  Level Los Angeles Center
Thu 01:24:07 PM 35.9658 -112.2656 186° South 132 152 17,100  Level Los Angeles Center
Thu 01:25:09 PM 35.9311 -112.2747 192° South 129 148 17,100  Level Los Angeles Center
Thu 01:26:12 PM 35.8914 -112.2803 186° South 141 162 17,100  Level Los Angeles Center
Thu 01:27:14 PM 35.8519 -112.2856 186° South 144 166 17,100  Level Los Angeles Center
Thu 01:28:16 PM 35.8067 -112.2936 188° South 139 160 17,100  Level Los Angeles Center
Thu 01:29:18 PM 35.7689 -112.3017 190° South 138 159 17,100  Level Los Angeles Center
Thu 01:30:21 PM 35.7322 -112.3078 188° South 135 155 17,100  Level Los Angeles Center
Thu 01:31:22 PM 35.6931 -112.3150 189° South 139 160 17,100 -49 Level Los Angeles Center
Thu 01:32:24 PM 35.6461 -112.3214 186° South 167 192 17,000 -48 Descending Los Angeles Center
Thu 01:33:26 PM 35.6039 -112.3292 189° South 157 181 17,000  Level Los Angeles Center
Thu 01:34:28 PM 35.5583 -112.3358 187° South 140 161 17,000  Level Los Angeles Center
Thu 01:35:31 PM 35.5200 -112.3400 185° South 140 161 17,000  Level Los Angeles Center
Thu 01:36:33 PM 35.4856 -112.3239 159° South 134 154 17,000  Level Los Angeles Center
Thu 01:37:35 PM 35.4508 -112.3147 168° South 128 147 17,000  Level Los Angeles Center
Thu 01:38:37 PM 35.4150 -112.3056 168° South 131 151 17,000  Level Los Angeles Center
Thu 01:39:39 PM 35.3694 -112.2914 166° South 141 162 17,000  Level Los Angeles Center
Thu 01:40:41 PM 35.3331 -112.2789 164° South 138 159 17,000  Level Los Angeles Center
Thu 01:41:43 PM 35.2997 -112.2686 166° South 127 146 17,000  Level Los Angeles Center
Thu 01:42:42 PM 35.2647 -112.2583 167° South 127 146 17,000  Level Albuquerque Center
Thu 01:42:45 PM 35.2647 -112.2583 167° South 129 148 17,000  Level Los Angeles Center
Thu 01:43:44 PM 35.2311 -112.2481 166° South 126 145 17,000  Level Albuquerque Center
Thu 01:44:46 PM 35.1947 -112.2361 165° South 133 153 17,000  Level Albuquerque Center
Thu 01:45:48 PM 35.1586 -112.2253 166° South 135 155 17,000 -387 Level Albuquerque Center
Thu 01:46:50 PM 35.1164 -112.2094 163° South 132 152 16,200 -774 Descending Albuquerque Center
Thu 01:47:52 PM 35.0753 -112.1964 165° South 141 162 15,400 -532 Descending Albuquerque Center
Thu 01:48:54 PM 35.0364 -112.1850 167° South 144 166 15,100 -48 Descending Albuquerque Center
Thu 01:49:56 PM 34.9978 -112.1725 165° South 144 166 15,300 97 Climbing Albuquerque Center
Thu 01:50:58 PM 34.9603 -112.1606 165° South 143 165 15,300  Level Albuquerque Center
Thu 01:52:00 PM 34.9231 -112.1492 166° South 140 161 15,300  Level Albuquerque Center
Thu 01:53:02 PM 34.8803 -112.1372 167° South 135 155 15,300  Level Albuquerque Center
Thu 01:54:04 PM 34.8453 -112.1267 166° South 130 150 15,300  Level Albuquerque Center
Thu 01:55:06 PM 34.8103 -112.1158 166° South 130 150 15,300 -48 Level Albuquerque Center
Thu 01:56:08 PM 34.7761 -112.1044 165° South 127 146 15,200 -48 Descending Albuquerque Center
Thu 01:57:10 PM 34.7406 -112.0933 166° South 127 146 15,200  Level Albuquerque Center
Thu 01:58:12 PM 34.7056 -112.0828 166° South 128 147 15,200  Level Albuquerque Center
Thu 01:59:14 PM 34.6594 -112.0683 166° South 139 160 15,200  Level Albuquerque Center
Thu 02:00:16 PM 34.6228 -112.0556 164° South 137 158 15,200  Level Albuquerque Center
Thu 02:01:18 PM 34.5925 -112.0464 166° South 115 132 15,200  Level Albuquerque Center
Thu 02:02:20 PM 34.5589 -112.0364 166° South 119 137 15,200 97 Level Albuquerque Center
Thu 02:03:22 PM 34.5256 -112.0253 165° South 123 142 15,400 97 Climbing Albuquerque Center
Thu 02:04:24 PM 34.4894 -112.0150 167° South 129 148 15,400 -532 Level Albuquerque Center
Thu 02:05:26 PM 34.4453 -112.0000 164° South 136 157 14,300 -1,016 Descending Albuquerque Center
Thu 02:06:28 PM 34.4078 -111.9875 165° South 139 160 13,300 -871 Descending Albuquerque Center
Thu 02:07:30 PM 34.3725 -111.9769 166° South 131 151 12,500 -726 Descending Albuquerque Center
Thu 02:08:32 PM 34.3378 -111.9661 166° South 130 150 11,800 -726 Descending Albuquerque Center
Thu 02:09:34 PM 34.3069 -111.9564 165° South 117 135 11,000 -339 Descending Albuquerque Center
Thu 02:10:36 PM 34.2661 -111.9439 166° South 123 142 11,100 48 Climbing Albuquerque Center
Thu 02:11:38 PM 34.2319 -111.9333 166° South 126 145 11,100 -48 Level Albuquerque Center
Thu 02:12:41 PM 34.1956 -111.9217 165° South 135 155 11,000 -48 Descending Albuquerque Center
Thu 02:13:42 PM 34.1592 -111.9236 183° South 132 152 11,000 -195 Level Albuquerque Center
Thu 02:14:44 PM 34.1256 -111.9261 184° South 124 143 10,600 -677 Descending Albuquerque Center
Thu 02:15:46 PM 34.0914 -111.9272 182° South 124 143 9,600 -1,065 Descending Albuquerque Center
Thu 02:16:48 PM 34.0500 -111.9303 184° South 124 143 8,400 -726 Descending Albuquerque Center
Thu 02:17:50 PM 34.0156 -111.9294 179° South 123 142 8,100 -145 Descending Albuquerque Center
Thu 02:18:52 PM 33.9808 -111.9411 196° South 132 152 8,100 -48 Level Albuquerque Center
Thu 02:19:54 PM 33.9475 -111.9569 202° Southwest 130 150 8,000 -387 Descending Albuquerque Center
Thu 02:20:56 PM 33.9169 -111.9744 205° Southwest 124 143 7,300 -677 Descending Albuquerque Center
Thu 02:21:58 PM 33.8786 -112.0031 212° Southwest 132 152 6,600 -581 Descending Albuquerque Center
Thu 02:23:00 PM 33.8481 -112.0264 212° Southwest 131 151 6,100 -488 Descending Albuquerque Center
Thu 02:24:01 PM 33.8192 -112.0486 213° Southwest 124 143 5,600 -488 Descending Albuquerque Center
Thu 02:25:03 PM 33.7903 -112.0647 205° Southwest 117 135 5,100 -677 Descending Albuquerque Center
Thu 02:26:05 PM 33.7586 -112.0761 197° South 119 137 4,200 -726 Descending Albuquerque Center
Thu 02:27:07 PM 33.7247 -112.0803 186° South 122 140 3,600 -387 Descending Albuquerque Center
Thu 02:28:09 PM 33.6839 -112.0814 181° South 125 144 3,400 -290 Descending Albuquerque Center
Thu 02:29:11 PM 33.6697 -112.0483 117° Southeast 143 165 3,000 -585 Descending Albuquerque Center
Thu 02:30:12 PM 33.6903 -112.0411 16° North 168 193 2,200 -390 Descending Albuquerque Center
Thu 02:31:14 PM 33.6811 -112.0742 252° West 155 178 2,200  Level Albuquerque Center
Thu 02:33:00 PM 33.6833 -112.0667 337° Northwest  Level FlightAware Approximate

Login

Don't have an account? Register now (free) for customized features, flight alerts, and more!